createdAt,value
2018-01-06T00:00:01.147Z,801.22
2018-01-06T00:00:05.429Z,801.23
2018-01-06T00:00:09.453Z,801.25
2018-01-06T00:00:13.687Z,801.28
2018-01-06T00:00:18.039Z,801.23
2018-01-06T00:00:22.388Z,801.25
2018-01-06T00:00:26.624Z,801.26
2018-01-06T00:00:30.871Z,801.27
2018-01-06T00:00:34.793Z,801.28
2018-01-06T00:00:38.829Z,801.27
2018-01-06T00:00:42.955Z,801.26
2018-01-06T00:00:47.178Z,801.26
2018-01-06T00:00:51.291Z,801.25
2018-01-06T00:00:55.527Z,801.25
2018-01-06T00:00:59.767Z,801.25
2018-01-06T00:01:03.958Z,801.28
2018-01-06T00:01:08.095Z,801.25
2018-01-06T00:01:12.220Z,801.25
2018-01-06T00:01:16.558Z,801.26
2018-01-06T00:01:20.712Z,801.25
2018-01-06T00:01:24.792Z,801.25
2018-01-06T00:01:28.926Z,801.23
2018-01-06T00:01:32.755Z,801.25
2018-01-06T00:01:36.876Z,801.27
2018-01-06T00:01:40.794Z,801.27
2018-01-06T00:01:44.803Z,801.24
2018-01-06T00:01:49.180Z,801.26
2018-01-06T00:01:53.307Z,801.21
2018-01-06T00:01:57.434Z,801.21
2018-01-06T00:02:01.655Z,801.23
2018-01-06T00:02:05.832Z,801.24
2018-01-06T00:02:09.954Z,801.23
2018-01-06T00:02:14.302Z,801.21
2018-01-06T00:02:18.535Z,801.2
2018-01-06T00:02:22.779Z,801.22
2018-01-06T00:02:26.923Z,801.23
2018-01-06T00:02:31.285Z,801.2
2018-01-06T00:02:35.202Z,801.2
2018-01-06T00:02:39.340Z,801.18
2018-01-06T00:02:43.563Z,801.21
2018-01-06T00:02:47.904Z,801.19
2018-01-06T00:02:51.944Z,801.2
2018-01-06T00:02:56.195Z,801.22
2018-01-06T00:03:00.317Z,801.22
2018-01-06T00:03:04.543Z,801.22
2018-01-06T00:03:08.656Z,801.18
2018-01-06T00:03:12.890Z,801.18
2018-01-06T00:03:17.289Z,801.16
2018-01-06T00:03:21.426Z,801.18
2018-01-06T00:03:25.666Z,801.18
2018-01-06T00:03:29.685Z,801.18
2018-01-06T00:03:33.697Z,801.18
2018-01-06T00:03:37.616Z,801.17
2018-01-06T00:03:41.960Z,801.16
2018-01-06T00:03:46.302Z,801.17
2018-01-06T00:03:50.327Z,801.21
2018-01-06T00:03:54.670Z,801.2
2018-01-06T00:03:58.691Z,801.21
2018-01-06T00:04:03.031Z,801.2
2018-01-06T00:04:07.165Z,801.19
2018-01-06T00:04:11.401Z,801.18
2018-01-06T00:04:15.642Z,801.2
2018-01-06T00:04:19.864Z,801.2
2018-01-06T00:04:24.099Z,801.19
2018-01-06T00:04:28.240Z,801.19
2018-01-06T00:04:32.249Z,801.18
2018-01-06T00:04:36.058Z,801.18
2018-01-06T00:04:39.982Z,801.2
2018-01-06T00:04:44.212Z,801.16
2018-01-06T00:04:48.243Z,801.2
2018-01-06T00:04:52.375Z,801.19
2018-01-06T00:04:56.487Z,801.17
2018-01-06T00:05:00.614Z,801.18
2018-01-06T00:05:04.640Z,801.19
2018-01-06T00:05:09.000Z,801.17
2018-01-06T00:05:13.124Z,801.21
2018-01-06T00:05:17.456Z,801.18
2018-01-06T00:05:21.701Z,801.17
2018-01-06T00:05:26.004Z,801.15
2018-01-06T00:05:30.146Z,801.19
2018-01-06T00:05:34.157Z,801.18
2018-01-06T00:05:38.462Z,801.18
2018-01-06T00:05:42.616Z,801.18
2018-01-06T00:05:46.732Z,801.17
2018-01-06T00:05:50.964Z,801.17
2018-01-06T00:05:54.988Z,801.14
2018-01-06T00:05:59.117Z,801.16
2018-01-06T00:06:03.154Z,801.1
2018-01-06T00:06:07.492Z,801.12
2018-01-06T00:06:11.744Z,801.11
2018-01-06T00:06:15.885Z,801.11
2018-01-06T00:06:20.230Z,801.14
2018-01-06T00:06:24.453Z,801.13
2018-01-06T00:06:28.683Z,801.12
2018-01-06T00:06:32.812Z,801.2
2018-01-06T00:06:37.045Z,801.18
2018-01-06T00:06:41.287Z,801.18
2018-01-06T00:06:45.219Z,801.17
2018-01-06T00:06:49.550Z,801.13
2018-01-06T00:06:53.889Z,801.13
2018-01-06T00:06:58.010Z,801.15
2018-01-06T00:07:02.233Z,801.16
2018-01-06T00:07:06.368Z,801.17
2018-01-06T00:07:10.701Z,801.19
2018-01-06T00:07:15.041Z,801.17
2018-01-06T00:07:19.074Z,801.19
2018-01-06T00:07:23.204Z,801.19
2018-01-06T00:07:27.221Z,801.18
2018-01-06T00:07:31.155Z,801.18
2018-01-06T00:07:35.294Z,801.16
2018-01-06T00:07:39.315Z,801.19
2018-01-06T00:07:43.639Z,801.17
2018-01-06T00:07:47.992Z,801.17
2018-01-06T00:07:52.329Z,801.13
2018-01-06T00:07:56.565Z,801.15
2018-01-06T00:08:00.807Z,801.12
2018-01-06T00:08:05.032Z,801.17
2018-01-06T00:08:09.283Z,801.15
2018-01-06T00:08:13.530Z,801.12
2018-01-06T00:08:17.470Z,801.1
2018-01-06T00:08:21.829Z,801.08
2018-01-06T00:08:26.078Z,801.15
2018-01-06T00:08:30.110Z,801.15
2018-01-06T00:08:34.028Z,801.13
2018-01-06T00:08:38.123Z,801.12
2018-01-06T00:08:42.237Z,801.12
2018-01-06T00:08:46.359Z,801.12
2018-01-06T00:08:50.581Z,801.1
2018-01-06T00:08:54.707Z,801.12
2018-01-06T00:08:58.716Z,801.13
2018-01-06T00:09:03.344Z,801.12
2018-01-06T00:09:07.582Z,801.13
2018-01-06T00:09:11.836Z,801.16
2018-01-06T00:09:16.094Z,801.14
2018-01-06T00:09:20.362Z,801.14
2018-01-06T00:09:24.492Z,801.13
2018-01-06T00:10:00.723Z,801.07
2018-01-06T00:10:05.048Z,801.13
2018-01-06T00:10:09.391Z,801.1
2018-01-06T00:10:13.520Z,801.11
2018-01-06T00:10:17.547Z,801.12
2018-01-06T00:10:21.703Z,801.11
2018-01-06T00:10:25.853Z,801.11
2018-01-06T00:10:30.083Z,801.1
2018-01-06T00:10:34.364Z,801.09
2018-01-06T00:10:38.486Z,801.14
2018-01-06T00:10:42.520Z,801.13
2018-01-06T00:10:46.737Z,801.1
2018-01-06T00:10:50.845Z,801.11
2018-01-06T00:10:54.871Z,801.15
2018-01-06T00:10:59.012Z,801.17
2018-01-06T00:11:03.158Z,801.11
2018-01-06T00:11:07.500Z,801.12
2018-01-06T00:11:11.640Z,801.11
2018-01-06T00:11:15.781Z,801.14
2018-01-06T00:11:19.699Z,801.12
2018-01-06T00:11:23.828Z,801.13
2018-01-06T00:11:27.760Z,801.1
2018-01-06T00:11:31.686Z,801.07
2018-01-06T00:11:35.828Z,801.08
2018-01-06T00:11:39.839Z,801.07
2018-01-06T00:11:44.073Z,801.09
2018-01-06T00:11:48.103Z,801.13
2018-01-06T00:11:52.143Z,801.09
2018-01-06T00:11:56.273Z,801.09
2018-01-06T00:12:00.407Z,801.06
2018-01-06T00:12:04.633Z,801.1
2018-01-06T00:12:08.676Z,801.11
2018-01-06T00:12:12.934Z,801.1
2018-01-06T00:12:16.852Z,801.12
2018-01-06T00:12:20.967Z,801.11
2018-01-06T00:12:25.117Z,801.11
2018-01-06T00:12:29.354Z,801.13
2018-01-06T00:12:33.583Z,801.1
2018-01-06T00:12:37.716Z,801.12
2018-01-06T00:12:41.943Z,801.07
2018-01-06T00:12:46.178Z,801.09
2018-01-06T00:12:50.108Z,801.11
2018-01-06T00:12:54.351Z,801.09
2018-01-06T00:12:58.692Z,801.09
2018-01-06T00:13:03.072Z,801.1
2018-01-06T00:13:07.297Z,801.1
2018-01-06T00:13:11.415Z,801.12
2018-01-06T00:13:15.774Z,801.09
2018-01-06T00:13:20.117Z,801.1
2018-01-06T00:13:24.238Z,801.08
2018-01-06T00:13:28.461Z,801.1
2018-01-06T00:13:32.592Z,801.11
2018-01-06T00:13:36.729Z,801.11
2018-01-06T00:13:40.957Z,801.09
2018-01-06T00:13:45.307Z,801.12
2018-01-06T00:13:49.321Z,801.13
2018-01-06T00:13:53.463Z,801.14
2018-01-06T00:13:57.696Z,801.12
2018-01-06T00:14:02.084Z,801.13
2018-01-06T00:14:06.332Z,801.1
2018-01-06T00:14:10.459Z,801.09
2018-01-06T00:14:14.820Z,801.09
2018-01-06T00:14:19.156Z,801.12
2018-01-06T00:14:23.490Z,801.1
2018-01-06T00:14:27.612Z,801.09
2018-01-06T00:14:31.755Z,801.12
2018-01-06T00:14:35.786Z,801.09
2018-01-06T00:14:40.021Z,801.1
2018-01-06T00:14:44.369Z,801.11
2018-01-06T00:14:48.704Z,801.12
2018-01-06T00:14:53.028Z,801.1
2018-01-06T00:14:57.257Z,801.1
2018-01-06T00:15:01.595Z,801.11
2018-01-06T00:15:05.717Z,801.14
2018-01-06T00:15:09.737Z,801.13
2018-01-06T00:15:13.976Z,801.13
2018-01-06T00:15:18.313Z,801.12
2018-01-06T00:15:22.563Z,801.1
2018-01-06T00:15:26.700Z,801.12
2018-01-06T00:15:30.929Z,801.13
2018-01-06T00:15:34.963Z,801.15
2018-01-06T00:15:39.097Z,801.15
2018-01-06T00:15:42.906Z,801.13
2018-01-06T00:15:46.944Z,801.15
2018-01-06T00:15:51.065Z,801.13
2018-01-06T00:15:55.396Z,801.12
2018-01-06T00:15:59.694Z,801.13
2018-01-06T00:16:03.829Z,801.13
2018-01-06T00:16:08.166Z,801.17
2018-01-06T00:16:12.485Z,801.14
2018-01-06T00:16:16.612Z,801.16
2018-01-06T00:16:20.727Z,801.16
2018-01-06T00:16:24.857Z,801.16
2018-01-06T00:16:29.045Z,801.16
2018-01-06T00:16:33.175Z,801.16
2018-01-06T00:16:37.311Z,801.16
2018-01-06T00:16:41.440Z,801.19
2018-01-06T00:16:45.583Z,801.15
2018-01-06T00:16:49.824Z,801.15
2018-01-06T00:16:54.059Z,801.1
2018-01-06T00:16:57.975Z,801.18
2018-01-06T00:17:02.008Z,801.18
2018-01-06T00:17:06.030Z,801.14
2018-01-06T00:17:10.311Z,801.2
2018-01-06T00:17:14.446Z,801.15
2018-01-06T00:17:18.581Z,801.15
2018-01-06T00:17:22.605Z,801.14
2018-01-06T00:17:26.846Z,801.21
2018-01-06T00:17:30.987Z,801.19
2018-01-06T00:17:35.014Z,801.16
2018-01-06T00:17:39.146Z,801.2
2018-01-06T00:17:43.269Z,801.17
2018-01-06T00:17:47.276Z,801.13
2018-01-06T00:17:51.195Z,801.17
2018-01-06T00:17:55.425Z,801.21
2018-01-06T00:17:59.548Z,801.2
2018-01-06T00:18:04.135Z,801.2
2018-01-06T00:18:08.384Z,801.2
2018-01-06T00:18:12.408Z,801.21
2018-01-06T00:18:16.532Z,801.2
2018-01-06T00:18:20.776Z,801.2
2018-01-06T00:18:25.003Z,801.2
2018-01-06T00:18:29.342Z,801.22
2018-01-06T00:18:33.374Z,801.22
2018-01-06T00:18:37.510Z,801.23
2018-01-06T00:18:41.534Z,801.22
2018-01-06T00:18:45.776Z,801.2
2018-01-06T00:18:49.804Z,801.22
2018-01-06T00:18:53.915Z,801.22
2018-01-06T00:18:57.814Z,801.19
2018-01-06T00:19:01.838Z,801.2
2018-01-06T00:19:06.074Z,801.23
2018-01-06T00:19:10.196Z,801.21
2018-01-06T00:19:14.564Z,801.23
2018-01-06T00:19:18.685Z,801.21
2018-01-06T00:19:22.716Z,801.21
2018-01-06T00:19:26.742Z,801.18
2018-01-06T00:19:30.865Z,801.17
2018-01-06T00:19:34.886Z,801.19
2018-01-06T00:19:39.011Z,801.18
2018-01-06T00:19:42.921Z,801.2
2018-01-06T00:19:46.840Z,801.16
2018-01-06T00:19:51.181Z,801.18
2018-01-06T00:19:55.217Z,801.17
2018-01-06T00:19:59.360Z,801.16
2018-01-06T00:20:03.610Z,801.21
2018-01-06T00:20:07.738Z,801.24
2018-01-06T00:20:12.077Z,801.2
2018-01-06T00:20:16.323Z,801.19
2018-01-06T00:20:20.443Z,801.21
2018-01-06T00:20:24.581Z,801.21
2018-01-06T00:20:28.833Z,801.2
2018-01-06T00:20:33.092Z,801.25
2018-01-06T00:20:37.345Z,801.21
2018-01-06T00:20:41.584Z,801.21
2018-01-06T00:20:45.715Z,801.22
2018-01-06T00:20:49.938Z,801.23
2018-01-06T00:20:54.063Z,801.23
2018-01-06T00:20:58.190Z,801.21
2018-01-06T00:21:06.240Z,801.23
2018-01-06T00:21:10.475Z,801.24
2018-01-06T00:21:14.720Z,801.24
2018-01-06T00:21:18.853Z,801.24
2018-01-06T00:21:23.091Z,801.22
2018-01-06T00:21:27.327Z,801.25
2018-01-06T00:21:31.572Z,801.26
2018-01-06T00:21:35.608Z,801.23
2018-01-06T00:21:39.640Z,801.25
2018-01-06T00:21:43.877Z,801.23
2018-01-06T00:21:47.918Z,801.25
2018-01-06T00:21:52.147Z,801.25
2018-01-06T00:21:56.333Z,801.26
2018-01-06T00:22:00.469Z,801.26
2018-01-06T00:22:04.781Z,801.25
2018-01-06T00:22:09.019Z,801.24
2018-01-06T00:22:13.141Z,801.27
2018-01-06T00:22:17.481Z,801.28
2018-01-06T00:22:21.380Z,801.29
2018-01-06T00:22:25.720Z,801.22
2018-01-06T00:22:29.949Z,801.21
2018-01-06T00:22:34.192Z,801.24
2018-01-06T00:22:38.532Z,801.26
2018-01-06T00:22:42.554Z,801.27
2018-01-06T00:22:46.796Z,801.26
2018-01-06T00:22:50.928Z,801.27
2018-01-06T00:22:55.263Z,801.25
2018-01-06T00:22:59.297Z,801.27
2018-01-06T00:23:03.579Z,801.27
2018-01-06T00:23:07.706Z,801.28
2018-01-06T00:23:11.854Z,801.25
2018-01-06T00:23:15.879Z,801.27
2018-01-06T00:23:20.003Z,801.27
2018-01-06T00:23:24.016Z,801.24
2018-01-06T00:23:28.262Z,801.26
2018-01-06T00:23:32.503Z,801.22
2018-01-06T00:23:36.632Z,801.29
2018-01-06T00:23:40.861Z,801.22
2018-01-06T00:23:45.035Z,801.24
2018-01-06T00:23:49.370Z,801.26
2018-01-06T00:23:53.381Z,801.25
2018-01-06T00:23:57.307Z,801.31
2018-01-06T00:24:01.435Z,801.28
2018-01-06T00:24:05.555Z,801.28
2018-01-06T00:24:09.676Z,801.28
2018-01-06T00:24:13.908Z,801.26
2018-01-06T00:24:18.142Z,801.27
2018-01-06T00:24:22.276Z,801.29
2018-01-06T00:24:26.507Z,801.29
2018-01-06T00:24:30.647Z,801.26
2018-01-06T00:24:34.778Z,801.28
2018-01-06T00:24:39.137Z,801.27
2018-01-06T00:24:43.265Z,801.27
2018-01-06T00:24:47.498Z,801.28
2018-01-06T00:24:51.846Z,801.3
2018-01-06T00:24:56.206Z,801.29
2018-01-06T00:25:00.465Z,801.24
2018-01-06T00:25:04.719Z,801.28
2018-01-06T00:25:08.735Z,801.28
2018-01-06T00:25:13.091Z,801.27
2018-01-06T00:25:17.441Z,801.28
2018-01-06T00:25:21.459Z,801.27
2018-01-06T00:25:25.589Z,801.26
2018-01-06T00:25:29.823Z,801.28
2018-01-06T00:25:33.826Z,801.25
2018-01-06T00:25:37.943Z,801.24
2018-01-06T00:25:41.962Z,801.27
2018-01-06T00:25:46.346Z,801.27
2018-01-06T00:25:50.566Z,801.29
2018-01-06T00:25:54.606Z,801.24
2018-01-06T00:25:58.830Z,801.27
2018-01-06T00:26:03.108Z,801.26
2018-01-06T00:26:07.440Z,801.28
2018-01-06T00:26:11.800Z,801.3
2018-01-06T00:26:16.148Z,801.3
2018-01-06T00:26:20.283Z,801.31
2018-01-06T00:26:24.407Z,801.29
2018-01-06T00:26:28.747Z,801.28
2018-01-06T00:26:32.762Z,801.28
2018-01-06T00:26:36.876Z,801.3
2018-01-06T00:26:41.185Z,801.34
2018-01-06T00:26:45.106Z,801.28
2018-01-06T00:26:49.433Z,801.33
2018-01-06T00:26:53.451Z,801.33
2018-01-06T00:26:57.577Z,801.29
2018-01-06T00:27:01.823Z,801.28
2018-01-06T00:27:06.176Z,801.25
2018-01-06T00:27:10.397Z,801.27
2018-01-06T00:27:14.633Z,801.26
2018-01-06T00:27:18.747Z,801.26
2018-01-06T00:27:23.134Z,801.29
2018-01-06T00:27:27.168Z,801.23
2018-01-06T00:27:31.414Z,801.28
2018-01-06T00:27:35.239Z,801.31
2018-01-06T00:27:39.470Z,801.29
2018-01-06T00:27:43.501Z,801.28
2018-01-06T00:27:47.645Z,801.29
2018-01-06T00:27:51.877Z,801.26
2018-01-06T00:27:55.901Z,801.25
2018-01-06T00:28:00.046Z,801.27
2018-01-06T00:28:04.176Z,801.27
2018-01-06T00:28:08.317Z,801.28
2018-01-06T00:28:12.560Z,801.31
2018-01-06T00:28:16.790Z,801.28
2018-01-06T00:28:21.134Z,801.28
2018-01-06T00:28:25.158Z,801.28
2018-01-06T00:28:29.503Z,801.28
2018-01-06T00:28:33.422Z,801.28
2018-01-06T00:28:37.537Z,801.24
2018-01-06T00:28:41.921Z,801.26
2018-01-06T00:28:46.148Z,801.26
2018-01-06T00:28:50.263Z,801.23
2018-01-06T00:28:54.390Z,801.22
2018-01-06T00:28:58.402Z,801.19
2018-01-06T00:29:02.737Z,801.23
2018-01-06T00:29:07.082Z,801.23
2018-01-06T00:29:11.267Z,801.23
2018-01-06T00:29:15.511Z,801.22
2018-01-06T00:29:19.744Z,801.2
2018-01-06T00:29:24.079Z,801.22
2018-01-06T00:29:27.984Z,801.2
2018-01-06T00:29:32.335Z,801.22
2018-01-06T00:29:36.463Z,801.17
2018-01-06T00:29:40.395Z,801.22
2018-01-06T00:29:44.619Z,801.21
2018-01-06T00:29:48.754Z,801.2
2018-01-06T00:29:52.991Z,801.19
2018-01-06T00:29:56.893Z,801.2
2018-01-06T00:30:01.022Z,801.18
2018-01-06T00:30:05.558Z,801.21
2018-01-06T00:30:09.673Z,801.19
2018-01-06T00:30:13.811Z,801.18
2018-01-06T00:30:17.956Z,801.15
2018-01-06T00:30:22.086Z,801.17
2018-01-06T00:30:26.002Z,801.18
2018-01-06T00:30:30.082Z,801.18
2018-01-06T00:30:33.891Z,801.17
2018-01-06T00:30:38.129Z,801.13
2018-01-06T00:30:42.363Z,801.14
2018-01-06T00:30:46.493Z,801.12
2018-01-06T00:30:50.827Z,801.14
2018-01-06T00:30:54.864Z,801.14
2018-01-06T00:30:58.998Z,801.14
2018-01-06T00:31:03.645Z,801.13
2018-01-06T00:31:07.561Z,801.07
2018-01-06T00:31:11.938Z,801.13
2018-01-06T00:31:16.069Z,801.12
2018-01-06T00:31:20.306Z,801.09
2018-01-06T00:31:24.538Z,801.07
2018-01-06T00:31:28.888Z,801.06
2018-01-06T00:31:33.113Z,801.03
2018-01-06T00:31:37.112Z,801.06
2018-01-06T00:31:41.129Z,801.05
2018-01-06T00:31:45.145Z,801.05
2018-01-06T00:31:49.370Z,800.99
2018-01-06T00:31:53.718Z,801.01
2018-01-06T00:31:57.942Z,801.03
2018-01-06T00:32:01.966Z,801.03
2018-01-06T00:32:06.345Z,801.01
2018-01-06T00:32:10.567Z,801.01
2018-01-06T00:32:14.803Z,801.04
2018-01-06T00:32:18.939Z,800.95
2018-01-06T00:32:23.188Z,800.97
2018-01-06T00:32:27.418Z,800.99
2018-01-06T00:32:31.579Z,800.96
2018-01-06T00:32:35.501Z,800.96
2018-01-06T00:32:39.629Z,800.97
2018-01-06T00:32:43.859Z,800.94
2018-01-06T00:32:47.996Z,800.99
2018-01-06T00:32:52.127Z,800.98
2018-01-06T00:32:56.266Z,800.95
2018-01-06T00:33:00.394Z,800.95
2018-01-06T00:33:04.723Z,800.96
2018-01-06T00:33:09.050Z,800.92
2018-01-06T00:33:13.391Z,800.94
2018-01-06T00:33:17.632Z,800.91
2018-01-06T00:33:21.856Z,800.92
2018-01-06T00:33:26.086Z,800.92
2018-01-06T00:33:30.214Z,800.91
2018-01-06T00:33:34.226Z,800.91
2018-01-06T00:33:38.531Z,800.9
2018-01-06T00:33:42.552Z,800.87
2018-01-06T00:33:46.568Z,800.84
2018-01-06T00:33:50.681Z,800.86
2018-01-06T00:33:54.691Z,800.83
2018-01-06T00:33:58.716Z,800.84
2018-01-06T00:34:02.735Z,800.82
2018-01-06T00:34:07.065Z,800.85
2018-01-06T00:34:11.284Z,800.85
2018-01-06T00:34:15.528Z,800.84
2018-01-06T00:34:19.657Z,800.83
2018-01-06T00:34:23.902Z,800.82
2018-01-06T00:34:27.810Z,800.83
2018-01-06T00:34:31.958Z,800.83
2018-01-06T00:34:36.292Z,800.83
2018-01-06T00:34:40.402Z,800.83
2018-01-06T00:34:44.524Z,800.78
2018-01-06T00:34:48.452Z,800.79
2018-01-06T00:34:52.588Z,800.8
2018-01-06T00:34:56.932Z,800.77
2018-01-06T00:35:01.070Z,800.74
2018-01-06T00:35:05.094Z,800.76
2018-01-06T00:35:09.448Z,800.77
2018-01-06T00:35:13.682Z,800.76
2018-01-06T00:35:17.710Z,800.71
2018-01-06T00:35:21.732Z,800.67
2018-01-06T00:35:26.083Z,800.66
2018-01-06T00:35:30.112Z,800.71
2018-01-06T00:35:34.361Z,800.73
2018-01-06T00:35:38.597Z,800.71
2018-01-06T00:35:42.808Z,800.67
2018-01-06T00:35:46.946Z,800.63
2018-01-06T00:35:51.169Z,800.63
2018-01-06T00:35:55.500Z,800.61
2018-01-06T00:35:59.512Z,800.64
2018-01-06T00:36:03.950Z,800.62
2018-01-06T00:36:08.228Z,800.62
2018-01-06T00:36:12.378Z,800.63
2018-01-06T00:36:16.719Z,800.62
2018-01-06T00:36:21.006Z,800.58
2018-01-06T00:36:25.132Z,800.52
2018-01-06T00:36:29.273Z,800.53
2018-01-06T00:36:33.302Z,800.53
2018-01-06T00:36:37.429Z,800.56
2018-01-06T00:36:41.580Z,800.59
2018-01-06T00:36:46.158Z,800.55
2018-01-06T00:36:50.348Z,800.54
2018-01-06T00:36:54.477Z,800.56
2018-01-06T00:36:58.810Z,800.54
2018-01-06T00:37:03.438Z,800.52
2018-01-06T00:37:07.708Z,800.52
2018-01-06T00:37:11.937Z,800.47
2018-01-06T00:37:16.109Z,800.52
2018-01-06T00:37:20.229Z,800.49
2018-01-06T00:37:24.459Z,800.47
2018-01-06T00:37:28.367Z,800.45
2018-01-06T00:37:32.177Z,800.45
2018-01-06T00:37:36.193Z,800.44
2018-01-06T00:37:40.420Z,800.4
2018-01-06T00:37:44.348Z,800.4
2018-01-06T00:37:48.492Z,800.41
2018-01-06T00:37:52.527Z,800.4
2018-01-06T00:37:56.874Z,800.37
2018-01-06T00:38:01.110Z,800.35
2018-01-06T00:38:05.230Z,800.37
2018-01-06T00:38:09.578Z,800.35
2018-01-06T00:38:13.605Z,800.35
2018-01-06T00:38:17.830Z,800.33
2018-01-06T00:38:21.859Z,800.35
2018-01-06T00:38:25.984Z,800.36
2018-01-06T00:38:30.219Z,800.29
2018-01-06T00:38:34.358Z,800.31
2018-01-06T00:38:38.489Z,800.31
2018-01-06T00:38:42.617Z,800.29
2018-01-06T00:38:46.851Z,800.29
2018-01-06T00:38:51.195Z,800.29
2018-01-06T00:38:55.111Z,800.26
2018-01-06T00:38:59.229Z,800.25
2018-01-06T00:39:03.412Z,800.25
2018-01-06T00:39:07.742Z,800.19
2018-01-06T00:39:12.099Z,800.26
2018-01-06T00:39:16.450Z,800.24
2018-01-06T00:39:20.586Z,800.22
2018-01-06T00:39:24.722Z,800.21
2018-01-06T00:39:28.753Z,800.21
2018-01-06T00:39:32.989Z,800.19
2018-01-06T00:39:37.211Z,800.2
2018-01-06T00:39:41.230Z,800.16
2018-01-06T00:39:45.359Z,800.16
2018-01-06T00:39:49.388Z,800.14
2018-01-06T00:39:53.636Z,800.13
2018-01-06T00:39:57.791Z,800.14
2018-01-06T00:40:02.208Z,800.13
2018-01-06T00:40:06.226Z,800.12
2018-01-06T00:40:10.250Z,800.11
2018-01-06T00:40:14.481Z,800.06
2018-01-06T00:40:18.708Z,800.07
2018-01-06T00:40:22.839Z,800.09
2018-01-06T00:40:27.071Z,800.08
2018-01-06T00:40:31.420Z,800.08
2018-01-06T00:40:35.652Z,800.05
2018-01-06T00:40:39.894Z,800.05
2018-01-06T00:40:44.234Z,800.02
2018-01-06T00:40:48.462Z,800.01
2018-01-06T00:40:52.761Z,799.98
2018-01-06T00:40:56.994Z,800
2018-01-06T00:41:01.118Z,800.02
2018-01-06T00:41:05.502Z,799.97
2018-01-06T00:41:09.511Z,799.98
2018-01-06T00:41:13.744Z,799.93
2018-01-06T00:41:17.971Z,799.96
2018-01-06T00:41:21.998Z,799.97
2018-01-06T00:41:26.028Z,799.93
2018-01-06T00:41:30.145Z,799.96
2018-01-06T00:41:34.291Z,799.95
2018-01-06T00:41:38.531Z,799.97
2018-01-06T00:41:42.550Z,799.93
2018-01-06T00:41:46.896Z,799.96
2018-01-06T00:41:50.701Z,799.92
2018-01-06T00:41:54.842Z,799.94
2018-01-06T00:41:58.954Z,799.93
2018-01-06T00:42:03.336Z,799.94
2018-01-06T00:42:07.580Z,799.91
2018-01-06T00:42:11.905Z,799.9
2018-01-06T00:42:16.146Z,799.86
2018-01-06T00:42:20.174Z,799.88
2018-01-06T00:42:24.295Z,799.85
2018-01-06T00:42:28.528Z,799.88
2018-01-06T00:42:32.639Z,799.87
2018-01-06T00:42:36.767Z,799.85
2018-01-06T00:42:41.004Z,799.83
2018-01-06T00:42:45.134Z,799.81
2018-01-06T00:42:49.164Z,799.87
2018-01-06T00:42:53.067Z,799.85
2018-01-06T00:42:57.287Z,799.83
2018-01-06T00:43:01.409Z,799.84
2018-01-06T00:43:05.542Z,799.83
2018-01-06T00:43:09.581Z,799.81
2018-01-06T00:43:13.733Z,799.8
2018-01-06T00:43:17.977Z,799.79
2018-01-06T00:43:22.203Z,799.81
2018-01-06T00:43:26.236Z,799.77
2018-01-06T00:43:30.488Z,799.8
2018-01-06T00:43:34.514Z,799.78
2018-01-06T00:43:38.761Z,799.77
2018-01-06T00:43:42.789Z,799.73
2018-01-06T00:43:47.027Z,799.77
2018-01-06T00:43:51.251Z,799.77
2018-01-06T00:43:55.370Z,799.73
2018-01-06T00:43:59.896Z,799.74
2018-01-06T00:44:04.145Z,799.74
2018-01-06T00:44:08.271Z,799.68
2018-01-06T00:44:12.508Z,799.72
2018-01-06T00:44:16.842Z,799.73
2018-01-06T00:44:21.078Z,799.67
2018-01-06T00:44:25.210Z,799.63
2018-01-06T00:44:29.354Z,799.65
2018-01-06T00:44:33.479Z,799.67
2018-01-06T00:44:37.846Z,799.65
2018-01-06T00:44:41.863Z,799.67
2018-01-06T00:44:46.191Z,799.71
2018-01-06T00:44:50.410Z,799.66
2018-01-06T00:44:54.536Z,799.67
2018-01-06T00:44:58.669Z,799.65
2018-01-06T00:45:03.246Z,799.63
2018-01-06T00:45:07.391Z,799.66
2018-01-06T00:45:11.744Z,799.61
2018-01-06T00:45:15.958Z,799.64
2018-01-06T00:45:20.082Z,799.63
2018-01-06T00:45:24.256Z,799.61
2018-01-06T00:45:28.573Z,799.6
2018-01-06T00:45:32.608Z,799.59
2018-01-06T00:45:36.734Z,799.58
2018-01-06T00:45:41.056Z,799.6
2018-01-06T00:45:45.287Z,799.58
2018-01-06T00:45:49.512Z,799.56
2018-01-06T00:45:53.759Z,799.53
2018-01-06T00:45:58.120Z,799.57
2018-01-06T00:46:02.158Z,799.6
2018-01-06T00:46:06.289Z,799.59
2018-01-06T00:46:10.622Z,799.54
2018-01-06T00:46:14.772Z,799.57
2018-01-06T00:46:19.017Z,799.56
2018-01-06T00:46:23.136Z,799.53
2018-01-06T00:46:27.052Z,799.54
2018-01-06T00:46:31.407Z,799.55
2018-01-06T00:46:35.758Z,799.49
2018-01-06T00:46:39.990Z,799.45
2018-01-06T00:46:44.215Z,799.51
2018-01-06T00:46:48.462Z,799.49
2018-01-06T00:46:52.499Z,799.51
2018-01-06T00:46:56.617Z,799.51
2018-01-06T00:47:00.854Z,799.47
2018-01-06T00:47:05.018Z,799.49
2018-01-06T00:47:09.146Z,799.5
2018-01-06T00:47:13.505Z,799.47
2018-01-06T00:47:17.649Z,799.5
2018-01-06T00:47:21.987Z,799.47
2018-01-06T00:47:25.899Z,799.47
2018-01-06T00:47:30.252Z,799.45
2018-01-06T00:47:34.166Z,799.46
2018-01-06T00:47:38.460Z,799.45
2018-01-06T00:47:42.276Z,799.47
2018-01-06T00:47:46.516Z,799.43
2018-01-06T00:47:50.747Z,799.42
2018-01-06T00:47:55.075Z,799.43
2018-01-06T00:47:59.331Z,799.42
2018-01-06T00:48:03.577Z,799.44
2018-01-06T00:48:07.921Z,799.41
2018-01-06T00:48:12.060Z,799.42
2018-01-06T00:48:16.080Z,799.38
2018-01-06T00:48:20.317Z,799.42
2018-01-06T00:48:24.558Z,799.39
2018-01-06T00:48:28.907Z,799.38
2018-01-06T00:48:33.139Z,799.39
2018-01-06T00:48:37.489Z,799.37
2018-01-06T00:48:41.815Z,799.33
2018-01-06T00:48:46.038Z,799.33
2018-01-06T00:48:50.150Z,799.37
2018-01-06T00:48:54.395Z,799.39
2018-01-06T00:48:58.724Z,799.36
2018-01-06T00:49:02.835Z,799.36
2018-01-06T00:49:06.954Z,799.36
2018-01-06T00:49:11.197Z,799.34
2018-01-06T00:49:15.422Z,799.34
2018-01-06T00:49:19.657Z,799.31
2018-01-06T00:49:23.893Z,799.32
2018-01-06T00:49:27.905Z,799.35
2018-01-06T00:49:31.952Z,799.32
2018-01-06T00:49:36.086Z,799.32
2018-01-06T00:49:40.333Z,799.31
2018-01-06T00:49:44.357Z,799.29
2018-01-06T00:49:48.696Z,799.33
2018-01-06T00:49:52.602Z,799.3
2018-01-06T00:49:56.840Z,799.3
2018-01-06T00:50:00.965Z,799.32
2018-01-06T00:50:05.091Z,799.3
2018-01-06T00:50:09.431Z,799.28
2018-01-06T00:50:13.675Z,799.29
2018-01-06T00:50:17.925Z,799.28
2018-01-06T00:50:22.213Z,799.32
2018-01-06T00:50:26.441Z,799.27
2018-01-06T00:50:30.791Z,799.25
2018-01-06T00:50:35.033Z,799.26
2018-01-06T00:50:39.179Z,799.25
2018-01-06T00:50:43.529Z,799.25
2018-01-06T00:50:47.783Z,799.24
2018-01-06T00:50:51.910Z,799.24
2018-01-06T00:50:56.029Z,799.21
2018-01-06T00:51:00.253Z,799.2
2018-01-06T00:51:04.364Z,799.23
2018-01-06T00:51:08.707Z,799.23
2018-01-06T00:51:13.066Z,799.23
2018-01-06T00:51:17.447Z,799.22
2018-01-06T00:51:21.685Z,799.21
2018-01-06T00:51:25.811Z,799.24
2018-01-06T00:51:30.041Z,799.21
2018-01-06T00:51:34.054Z,799.22
2018-01-06T00:51:38.279Z,799.2
2018-01-06T00:51:42.506Z,799.2
2018-01-06T00:51:46.847Z,799.17
2018-01-06T00:51:51.186Z,799.2
2018-01-06T00:51:55.427Z,799.19
2018-01-06T00:51:59.658Z,799.22
2018-01-06T00:52:04.144Z,799.21
2018-01-06T00:52:08.292Z,799.17
2018-01-06T00:52:12.632Z,799.15
2018-01-06T00:52:16.748Z,799.15
2018-01-06T00:52:20.978Z,799.13
2018-01-06T00:52:25.107Z,799.16
2018-01-06T00:52:29.455Z,799.17
2018-01-06T00:52:33.600Z,799.15
2018-01-06T00:52:37.669Z,799.18
2018-01-06T00:52:42.272Z,799.17
2018-01-06T00:52:46.354Z,799.14
2018-01-06T00:52:50.694Z,799.16